x

Grays Reef - 40 Nm Southeast Of Savannah, Ga (41008) Wave Buoy

8:50pm - Mon 15th Sep 2014 All times are EDT. -4 hours from GMT.

  • Sig Wave height 1.6ft
  • Swell Direction
  • Peak Period 6s
  • Average Period 4s
  • Wind
    7mph, 11mph gusts
  • Sea Temp 84°f
  • Air Temp 83°f
  • Sea Pressure 1019.7mb
  • Grays Reef - 40 Nm Southeast Of Savannah, Ga
  • Grays Reef - 40 Nm Southeast Of Savannah, Ga

More Historic Weather Station data

Upgrade to MSW Pro to gain access to the past 30 days of data for over 8000 Wavebouys and Weather Stations around the globe.

Join Pro

Comparision Forecast

View Surf forecast
   
Mon 09/15 8:50pm 1.6ft 6s 4s 7 11 mph 1019.7mb 84f 83f
7:50pm 1.6ft 9s 5s 9
mph
1019.5mb 85f 83f
6:50pm 1.6ft 6s 4s 7 9 mph 1018.7mb 85f 82f
5:50pm 1.6ft 6s 4s 7 9 mph 1019.1mb 85f 82f
4:50pm 1.6ft 6s 4s 7 9 mph 1019mb 85f 82f
3:50pm 1.6ft 5s 4s 9 11 mph 1019.5mb 85f 82f
2:50pm 1.6ft 6s 4s 9
mph
1019.8mb 85f 82f
1:50pm 2ft 6s 4s 9 11 mph 1020.5mb 85f 82f
12:50pm 2ft 5s 4s 9 11 mph 1021mb 85f 82f
11:50am 2ft 6s 4s 11 13 mph 1021.4mb 85f 82f
10:50am 2ft 6s 4s 4 7 mph 1021.5mb 85f 83f
9:50am 2ft 6s 5s 4
mph
1021.3mb 84f 83f
8:50am 1.6ft 7s 4s 4
mph
1021.1mb 84f 82f
7:50am 1.6ft 5s 4s 7 9 mph 1021mb 84f 82f
6:50am 1.3ft 8s 4s 7 9 mph 1020.9mb 84f 82f
5:50am 1.3ft 4s 4s 9
mph
1020.5mb 84f 83f
4:50am 1.3ft 5s 4s 7
mph
1020.1mb 84f 82f
3:50am 1.3ft 3s 4s 7 9 mph 1019.9mb 84f 83f
2:50am 1.3ft 5s 4s 9 13 mph 1019.9mb 84f 83f
1:50am 1.3ft 4s 4s 9 11 mph 1020.4mb 84f 83f
12:50am 1.3ft 4s 4s 7 9 mph 1020.8mb 84f 83f
Sun 09/14 11:50pm 1.6ft 3s 3s 9 13 mph 1021.2mb 84f 83f
10:50pm 1.6ft 3s 3s 9 11 mph 1021.6mb 84f 83f
9:50pm 1.6ft 3s 3s 11 13 mph 1021mb 84f 83f
8:50pm 1.6ft 4s 3s 13 16 mph 1020.3mb 84f 83f
7:50pm 1.6ft 5s 3s 13 16 mph 1019.9mb 84f 82f
6:50pm 1.6ft 5s 4s 13 16 mph 1019.7mb 85f 82f
5:50pm 1.3ft 5s 4s 13 16 mph 1019.9mb 85f 82f
4:50pm 1.3ft 5s 4s 11 13 mph 1020mb 85f 82f
3:50pm 1.3ft 4s 4s 11 13 mph 1019.9mb 85f 82f
2:50pm 1.6ft 5s 4s 7 9 mph 1020.1mb 85f 82f
1:50pm 1.6ft 5s 4s 4 7 mph 1020.8mb 85f 82f
12:50pm 1.6ft 5s 4s 4
mph
1021mb 84f 82f
11:50am 1.6ft 4s 4s 2 4 mph 1021.4mb 84f 82f
10:50am 2ft 4s 4s 4 7 mph 1021.4mb 84f 82f
9:50am 2ft 5s 4s 9 11 mph 1021.1mb 84f 82f
8:50am 2.5ft 4s 4s 9 11 mph 1020.6mb 84f 81f
7:50am 2ft 4s 4s 4 7 mph 1020.2mb 84f 80f
6:50am 2.5ft 4s 4s 9 13 mph 1019.5mb 84f 83f
5:50am 2ft 4s 4s 11 13 mph 1019mb 84f 83f
4:50am 2.5ft 4s 4s 13 16 mph 1018.6mb 84f 83f
3:50am 2ft 4s 4s 11 16 mph 1018.1mb 84f 83f
2:50am 2ft 4s 3s 16 18 mph 1018.2mb 84f 83f
1:50am 2ft 4s 4s 13 16 mph 1018.8mb 84f 83f
12:50am 2.5ft 4s 4s 13 16 mph 1019.6mb 84f 83f
Sat 09/13 11:50pm 2.5ft 3s 4s 16 18 mph 1019.4mb 84f 83f
10:50pm 2ft 3s 4s 13 18 mph 1019.2mb 84f 83f
9:50pm 1.6ft 3s 4s 13 16 mph 1018.5mb 84f 83f
8:50pm 1.6ft 3s 4s 13 16 mph 1018.2mb 85f 83f
7:50pm 1.3ft 6s 4s 11 13 mph 1017.6mb 85f 83f
6:50pm 1.3ft 8s 4s 11 13 mph 1017.1mb 85f 83f
4:50pm 1ft 7s 5s 9 11 mph 1016.3mb 86f 83f
3:50pm 1ft 9s 5s 2 4 mph 1016.5mb 86f 84f
2:50pm 1ft 9s 5s 4 7 mph 1017.2mb 86f 83f
1:50pm 1ft 5s 4s 4
mph
1018mb 85f 83f
12:50pm 1.3ft 9s 4s 4 7 mph 1018.6mb 85f 83f
11:50am 1.3ft 8s 4s 4 7 mph 1018.7mb 84f 83f
10:50am 1.3ft 9s 4s 9 11 mph 1018.6mb 84f 83f
9:50am 1.3ft 6s 4s 9 11 mph 1018.2mb 84f 83f
8:50am 1.3ft 8s 4s 9
mph
1017.7mb 84f 83f
7:50am 1.3ft 8s 4s 7
mph
1017.5mb 84f 83f
6:50am 1.3ft 8s 4s 7 9 mph 1017.1mb 84f 83f
5:50am 1.3ft 9s 4s 7 9 mph 1016.5mb 84f 83f
4:50am 1.3ft 7s 4s 7
mph
1016.1mb 84f 83f
3:50am 1.3ft 6s 4s 4
mph
1016.1mb 84f 83f
2:50am 1.3ft 9s 4s 7 9 mph 1016.3mb 84f 83f
1:50am 1.6ft 5s 4s 9 11 mph 1016.6mb 84f 83f
12:50am 1.6ft 6s 4s 9 11 mph 1016.7mb 84f 83f
Fri 09/12 11:50pm 1.6ft 5s 4s 11 13 mph 1016.8mb 84f 83f
10:50pm 2ft 6s 4s 9 11 mph 1017.3mb 84f 83f
9:50pm 2ft 5s 4s 13 16 mph 1016.6mb 84f 83f
8:50pm 1.6ft 5s 4s 13
mph
1016.6mb 85f 84f
7:50pm 2ft 5s 4s 9
mph
1016.1mb 85f 84f
6:50pm 2ft 5s 5s 9 11 mph 1015.7mb 85f 84f
5:50pm 1.6ft 6s 5s 9 11 mph 1015.7mb 85f 83f
4:50pm 1.6ft 6s 5s 9 11 mph 1015.4mb 85f 83f
3:50pm 1.6ft 6s 6s 9 11 mph 1015.5mb 86f 83f
2:50pm 1.6ft 6s 5s 7 9 mph 1016.2mb 86f 83f
1:50pm 1.6ft 6s 5s 4
mph
1017.1mb 87f 83f
12:50pm 1.6ft 6s 5s 2
mph
1017.1mb 86f 83f
11:50am 1.6ft 5s 5s  -  2 mph 1017.7mb 85f 82f
10:50am 1.6ft 6s 5s 4 7 mph 1017.9mb 84f 81f
9:50am 1.6ft 5s 5s 4 7 mph 1017.7mb 84f 82f
8:50am 1.6ft 5s 5s 7 9 mph 1017.5mb 84f 81f
7:50am 1.6ft 6s 5s 2
mph
1017.4mb 84f 82f
6:50am 1.6ft 9s 5s 2 4 mph 1017mb 84f 82f
5:50am 1.6ft 6s 5s 4
mph
1016.5mb 84f 82f
4:50am 1.3ft 9s 5s 4 7 mph 1016.4mb 84f 82f
3:50am 1.3ft 7s 6s 7 9 mph 1016.2mb 84f 82f
2:50am 1.3ft 10s 5s 7 9 mph 1016.5mb 84f 82f